createdAt,value
2022-10-05T00:02:01.689Z,11.92
2022-10-05T00:05:06.715Z,11.95
2022-10-05T00:08:12.205Z,12.43
2022-10-05T00:11:14.448Z,11.92
2022-10-05T00:14:30.886Z,11.86
2022-10-05T00:17:32.664Z,11.58
2022-10-05T00:20:34.449Z,12.25
2022-10-05T00:23:36.274Z,11.35
2022-10-05T00:26:38.135Z,11.15
2022-10-05T00:29:39.957Z,11.82
2022-10-05T00:32:42.348Z,11.68
2022-10-05T00:35:44.158Z,11.75
2022-10-05T00:38:46.159Z,11.16
2022-10-05T00:41:54.056Z,11.76
2022-10-05T00:45:25.671Z,12.54
2022-10-05T00:48:33.026Z,12.08
2022-10-05T00:51:36.379Z,11.85
2022-10-05T00:54:41.234Z,11.61
2022-10-05T00:57:42.962Z,11.63
2022-10-05T01:01:20.598Z,12.19
2022-10-05T01:04:27.163Z,11.42
2022-10-05T01:07:34.969Z,12.14
2022-10-05T01:10:47.811Z,13.01
2022-10-05T01:13:49.617Z,12.63
2022-10-05T01:17:10.372Z,12.41
2022-10-05T01:20:18.451Z,11.20
2022-10-05T01:23:23.299Z,11.23
2022-10-05T01:26:44.241Z,11.83
2022-10-05T01:30:18.935Z,11.65
2022-10-05T01:33:50.091Z,11.57
2022-10-05T01:36:57.553Z,12.41
2022-10-05T01:40:06.594Z,12.26
2022-10-05T01:43:08.337Z,11.68
2022-10-05T01:46:10.358Z,12.24
2022-10-05T01:49:15.163Z,12.47
2022-10-05T01:52:19.240Z,12.32
2022-10-05T01:55:29.157Z,11.89
2022-10-05T01:58:33.737Z,11.31
2022-10-05T02:01:39.203Z,11.13
2022-10-05T02:05:01.328Z,11.41
2022-10-05T02:08:08.535Z,11.69
2022-10-05T02:11:13.534Z,12.34
2022-10-05T02:14:16.725Z,12.12
2022-10-05T02:17:20.117Z,11.48
2022-10-05T02:20:25.592Z,10.74
2022-10-05T02:23:29.162Z,10.67
2022-10-05T02:26:31.064Z,11.06
2022-10-05T02:29:33.165Z,11.65
2022-10-05T02:32:40.355Z,11.99
2022-10-05T02:35:42.181Z,12.17
2022-10-05T02:38:57.086Z,12.34
2022-10-05T02:42:02.240Z,11.91
2022-10-05T02:45:22.625Z,10.89
2022-10-05T02:48:24.362Z,10.40
2022-10-05T02:51:35.355Z,10.81
2022-10-05T02:55:00.772Z,11.61
2022-10-05T02:58:02.554Z,11.34
2022-10-05T03:01:15.693Z,10.46
2022-10-05T03:04:26.996Z,10.49
2022-10-05T03:07:47.689Z,10.87
2022-10-05T03:11:24.799Z,11.23
2022-10-05T03:14:27.221Z,10.30
2022-10-05T03:17:30.962Z,10.15
2022-10-05T03:20:51.932Z,10.73
2022-10-05T03:23:53.675Z,11.02
2022-10-05T03:27:04.816Z,10.66
2022-10-05T03:30:19.922Z,10.38
2022-10-05T03:33:35.139Z,10.62
2022-10-05T03:36:36.855Z,10.75
2022-10-05T03:39:57.218Z,11.46
2022-10-05T03:43:18.076Z,11.34
2022-10-05T03:46:19.921Z,10.68
2022-10-05T03:49:48.026Z,10.77
2022-10-05T03:53:04.139Z,11.08
2022-10-05T03:56:05.902Z,11.69
2022-10-05T03:59:16.102Z,11.99
2022-10-05T04:02:28.606Z,11.82
2022-10-05T04:05:31.833Z,10.90
2022-10-05T04:08:48.042Z,11.81
2022-10-05T04:11:51.118Z,11.64
2022-10-05T04:14:59.121Z,10.05
2022-10-05T04:18:03.094Z,10.41
2022-10-05T04:21:10.126Z,10.43
2022-10-05T04:24:35.186Z,11.09
2022-10-05T04:27:39.372Z,11.58
2022-10-05T04:30:41.835Z,11.44
2022-10-05T04:33:44.462Z,10.83
2022-10-05T04:36:49.222Z,10.81
2022-10-05T04:40:10.074Z,11.33
2022-10-05T04:43:15.326Z,11.31
2022-10-05T04:46:22.909Z,10.82
2022-10-05T04:49:29.591Z,10.20
2022-10-05T04:52:31.409Z,9.65
2022-10-05T04:55:38.009Z,10.87
2022-10-05T04:58:46.076Z,11.26
2022-10-05T05:01:52.402Z,11.45
2022-10-05T05:04:57.300Z,10.89
2022-10-05T05:08:02.489Z,10.11
2022-10-05T05:11:23.743Z,10.99
2022-10-05T05:14:44.979Z,11.39
2022-10-05T05:18:05.287Z,11.35
2022-10-05T05:21:10.161Z,10.27
2022-10-05T05:24:30.690Z,10.69
2022-10-05T05:27:40.587Z,10.83
2022-10-05T05:31:04.652Z,10.91
2022-10-05T05:34:19.744Z,11.91
2022-10-05T05:37:34.012Z,11.98
2022-10-05T05:40:48.202Z,12.13
2022-10-05T05:43:50.295Z,12.13
2022-10-05T05:47:09.624Z,13.61
2022-10-05T05:50:32.284Z,15.11
2022-10-05T05:53:37.548Z,16.06
2022-10-05T05:56:40.436Z,15.64
2022-10-05T06:00:03.727Z,16.37
2022-10-05T06:03:08.692Z,16.03
2022-10-05T06:06:11.690Z,15.81
2022-10-05T06:09:18.934Z,15.28
2022-10-05T06:12:40.717Z,15.31
2022-10-05T06:15:45.100Z,16.22
2022-10-05T06:18:48.927Z,15.84
2022-10-05T06:22:17.241Z,15.48
2022-10-05T06:25:24.701Z,15.79
2022-10-05T06:28:27.566Z,15.94
2022-10-05T06:31:34.222Z,14.65
2022-10-05T06:34:51.413Z,16.40
2022-10-05T06:38:12.080Z,16.03
2022-10-05T06:41:23.295Z,16.49
2022-10-05T06:44:30.779Z,16.71
2022-10-05T06:47:47.429Z,16.62
2022-10-05T06:50:58.095Z,18.32
2022-10-05T06:54:18.921Z,17.56
2022-10-05T06:57:30.827Z,19.62
2022-10-05T07:00:41.060Z,19.64
2022-10-05T07:03:50.009Z,20.98
2022-10-05T07:06:53.302Z,20.37
2022-10-05T07:09:58.196Z,19.43
2022-10-05T07:13:09.413Z,19.88
2022-10-05T07:16:11.327Z,19.68
2022-10-05T07:19:21.381Z,21.20
2022-10-05T07:22:29.359Z,19.04
2022-10-05T07:25:38.782Z,18.66
2022-10-05T07:28:46.973Z,17.24
2022-10-05T07:31:52.024Z,18.66
2022-10-05T07:34:58.320Z,18.14
2022-10-05T07:38:01.240Z,17.96
2022-10-05T07:41:06.526Z,17.76
2022-10-05T07:44:13.029Z,17.15
2022-10-05T07:47:27.457Z,15.96
2022-10-05T07:50:38.446Z,15.76
2022-10-05T07:53:41.103Z,15.53
2022-10-05T07:56:44.382Z,16.10
2022-10-05T07:59:58.779Z,15.66
2022-10-05T08:03:11.832Z,15.35
2022-10-05T08:06:34.791Z,15.65
2022-10-05T08:09:41.525Z,17.29
2022-10-05T08:13:02.499Z,15.84
2022-10-05T08:16:06.124Z,15.41
2022-10-05T08:19:23.559Z,15.98
2022-10-05T08:22:28.261Z,15.86
2022-10-05T08:25:48.914Z,16.14
2022-10-05T08:28:59.882Z,15.84
2022-10-05T08:32:02.702Z,16.16
2022-10-05T08:35:13.963Z,17.33
2022-10-05T08:38:20.261Z,16.67
2022-10-05T08:41:40.907Z,17.48
2022-10-05T08:44:55.301Z,17.56
2022-10-05T08:48:03.932Z,17.82
2022-10-05T08:51:14.127Z,17.93
2022-10-05T08:54:19.050Z,18.64
2022-10-05T08:57:33.385Z,17.76
2022-10-05T09:00:47.277Z,18.21
2022-10-05T09:04:07.690Z,17.49
2022-10-05T09:07:27.170Z,17.36
2022-10-05T09:10:44.440Z,18.80
2022-10-05T09:13:46.341Z,18.98
2022-10-05T09:16:50.510Z,18.12
2022-10-05T09:20:00.471Z,17.85
2022-10-05T09:23:13.806Z,17.99
2022-10-05T09:26:31.001Z,18.30
2022-10-05T09:29:32.854Z,17.50
2022-10-05T09:32:40.080Z,17.48
2022-10-05T09:35:58.314Z,18.48
2022-10-05T09:39:09.291Z,20.23
2022-10-05T09:42:13.685Z,21.15
2022-10-05T09:45:49.079Z,21.65
2022-10-05T09:48:51.604Z,22.51
2022-10-05T09:51:58.781Z,24.65
2022-10-05T09:55:07.949Z,25.47
2022-10-05T09:58:30.509Z,22.87
2022-10-05T10:01:57.480Z,25.37
2022-10-05T10:05:08.009Z,22.76
2022-10-05T10:08:22.426Z,22.79
2022-10-05T10:11:33.593Z,24.19
2022-10-05T10:15:07.892Z,26.37
2022-10-05T10:18:21.971Z,24.70
2022-10-05T10:21:23.835Z,25.73
2022-10-05T10:24:26.163Z,23.77
2022-10-05T10:27:51.594Z,25.51
2022-10-05T10:30:54.303Z,24.00
2022-10-05T10:34:02.520Z,25.28
2022-10-05T10:37:07.014Z,24.54
2022-10-05T10:40:15.027Z,24.18
2022-10-05T10:43:35.212Z,21.25
2022-10-05T10:46:40.309Z,22.52
2022-10-05T10:50:00.895Z,20.15
2022-10-05T10:53:21.469Z,21.21
2022-10-05T10:56:27.266Z,19.48
2022-10-05T10:59:32.450Z,20.37
2022-10-05T11:02:53.339Z,20.88
2022-10-05T11:06:04.439Z,20.77
2022-10-05T11:09:25.085Z,20.69
2022-10-05T11:12:52.906Z,20.64
2022-10-05T11:16:11.596Z,20.14
2022-10-05T11:19:40.561Z,19.80
2022-10-05T11:22:56.522Z,19.92
2022-10-05T11:26:04.590Z,20.04
2022-10-05T11:29:18.820Z,20.12
2022-10-05T11:32:36.395Z,20.95
2022-10-05T11:35:57.967Z,20.37
2022-10-05T11:39:07.249Z,20.57
2022-10-05T11:42:12.121Z,19.90
2022-10-05T11:45:22.886Z,19.37
2022-10-05T11:48:24.781Z,19.42
2022-10-05T11:51:34.855Z,19.92
2022-10-05T11:55:10.250Z,19.57
2022-10-05T11:58:17.394Z,20.27
2022-10-05T12:01:27.218Z,20.38
2022-10-05T12:04:29.446Z,20.11
2022-10-05T12:07:36.979Z,20.05
2022-10-05T12:10:49.611Z,20.75
2022-10-05T12:13:51.790Z,20.17
2022-10-05T12:16:53.549Z,20.99
2022-10-05T12:19:59.034Z,20.33
2022-10-05T12:23:13.157Z,20.76
2022-10-05T12:26:15.150Z,21.32
2022-10-05T12:29:35.600Z,20.37
2022-10-05T12:32:40.509Z,21.67
2022-10-05T12:35:49.514Z,21.40
2022-10-05T12:38:57.845Z,21.49
2022-10-05T12:42:05.583Z,20.77
2022-10-05T12:45:10.430Z,20.43
2022-10-05T12:48:29.893Z,20.33
2022-10-05T12:51:32.131Z,21.22
2022-10-05T12:54:37.889Z,20.90
2022-10-05T12:57:53.135Z,21.65
2022-10-05T13:00:57.398Z,21.22
2022-10-05T13:04:03.895Z,20.91
2022-10-05T13:07:15.798Z,21.49
2022-10-05T13:10:20.592Z,20.90
2022-10-05T13:13:37.860Z,21.12
2022-10-05T13:16:45.851Z,21.22
2022-10-05T13:19:48.241Z,21.44
2022-10-05T13:22:59.086Z,21.24
2022-10-05T13:26:07.830Z,23.96
2022-10-05T13:29:15.990Z,25.06
2022-10-05T13:32:22.434Z,23.62
2022-10-05T13:35:24.340Z,25.07
2022-10-05T13:38:36.378Z,25.24
2022-10-05T13:41:48.362Z,24.28
2022-10-05T13:44:51.309Z,24.69
2022-10-05T13:47:56.094Z,22.83
2022-10-05T13:51:18.149Z,22.15
2022-10-05T13:54:38.967Z,21.59
2022-10-05T13:58:07.348Z,21.51
2022-10-05T14:01:14.432Z,20.78
2022-10-05T14:04:21.168Z,21.59
2022-10-05T14:07:25.234Z,21.79
2022-10-05T14:10:40.519Z,21.32
2022-10-05T14:13:46.835Z,21.29
2022-10-05T14:16:53.403Z,21.88
2022-10-05T14:19:57.606Z,21.40
2022-10-05T14:23:00.771Z,21.55
2022-10-05T14:26:04.496Z,21.61
2022-10-05T14:29:16.814Z,20.94
2022-10-05T14:32:22.177Z,20.06
2022-10-05T14:35:25.658Z,20.61
2022-10-05T14:38:32.018Z,20.86
2022-10-05T14:41:37.590Z,21.21
2022-10-05T14:44:39.960Z,21.78
2022-10-05T14:48:08.592Z,21.55
2022-10-05T14:51:11.208Z,21.56
2022-10-05T14:54:24.030Z,21.24
2022-10-05T14:57:35.561Z,20.81
2022-10-05T15:00:40.183Z,21.37
2022-10-05T15:03:54.346Z,21.03
2022-10-05T15:07:04.175Z,20.94
2022-10-05T15:10:26.957Z,21.22
2022-10-05T15:13:30.862Z,20.90
2022-10-05T15:16:33.704Z,20.92
2022-10-05T15:19:45.044Z,20.32
2022-10-05T15:23:00.833Z,19.82
2022-10-05T15:26:21.366Z,19.99
2022-10-05T15:29:42.399Z,20.77
2022-10-05T15:32:47.201Z,21.16
2022-10-05T15:36:09.883Z,20.57
2022-10-05T15:39:12.410Z,20.26
2022-10-05T15:42:15.598Z,20.56
2022-10-05T15:45:32.594Z,20.90
2022-10-05T15:48:35.973Z,20.74
2022-10-05T15:51:51.503Z,20.52
2022-10-05T15:55:12.258Z,19.56
2022-10-05T15:58:23.496Z,20.09
2022-10-05T16:01:29.292Z,19.45
2022-10-05T16:04:36.732Z,20.52
2022-10-05T16:07:58.294Z,20.45
2022-10-05T16:11:00.270Z,20.52
2022-10-05T16:14:06.237Z,20.25
2022-10-05T16:17:26.285Z,20.19
2022-10-05T16:20:31.151Z,20.14
2022-10-05T16:23:32.912Z,20.01
2022-10-05T16:26:53.675Z,19.95
2022-10-05T16:29:57.894Z,19.82
2022-10-05T16:33:14.351Z,19.66
2022-10-05T16:36:16.254Z,19.53
2022-10-05T16:39:18.015Z,19.61
2022-10-05T16:42:22.910Z,19.64
2022-10-05T16:45:30.972Z,19.50
2022-10-05T16:48:38.718Z,19.51
2022-10-05T16:51:40.666Z,19.05
2022-10-05T16:54:47.712Z,19.57
2022-10-05T16:57:55.526Z,19.51
2022-10-05T17:00:58.021Z,19.47
2022-10-05T17:04:18.623Z,18.51
2022-10-05T17:07:26.502Z,19.15
2022-10-05T17:10:37.411Z,19.37
2022-10-05T17:13:51.425Z,19.30
2022-10-05T17:16:56.240Z,19.26
2022-10-05T17:20:17.487Z,19.13
2022-10-05T17:23:48.704Z,19.23
2022-10-05T17:26:53.525Z,19.01
2022-10-05T17:29:56.266Z,19.15
2022-10-05T17:33:04.706Z,19.16
2022-10-05T17:36:12.955Z,18.84
2022-10-05T17:39:14.851Z,18.70
2022-10-05T17:42:42.629Z,18.79
2022-10-05T17:45:44.405Z,18.83
2022-10-05T17:48:49.283Z,17.75
2022-10-05T17:52:09.798Z,18.57
2022-10-05T17:55:25.748Z,18.60
2022-10-05T17:58:28.349Z,17.40
2022-10-05T18:01:34.492Z,18.09
2022-10-05T18:04:39.983Z,18.70
2022-10-05T18:07:42.608Z,18.83
2022-10-05T18:11:03.276Z,18.40
2022-10-05T18:14:16.026Z,19.11
2022-10-05T18:17:34.601Z,18.83
2022-10-05T18:20:37.441Z,18.62
2022-10-05T18:23:41.348Z,18.26
2022-10-05T18:26:52.517Z,17.70
2022-10-05T18:30:05.699Z,18.27
2022-10-05T18:33:11.616Z,18.73
2022-10-05T18:36:17.091Z,18.72
2022-10-05T18:39:18.887Z,18.60
2022-10-05T18:42:23.085Z,18.41
2022-10-05T18:45:27.979Z,18.70
2022-10-05T18:48:36.459Z,18.20
2022-10-05T18:51:48.322Z,17.94
2022-10-05T18:54:54.822Z,17.82
2022-10-05T18:58:05.789Z,16.95
2022-10-05T19:01:10.749Z,16.99
2022-10-05T19:04:12.722Z,16.98
2022-10-05T19:07:14.523Z,17.53
2022-10-05T19:10:23.053Z,18.03
2022-10-05T19:13:30.988Z,17.29
2022-10-05T19:16:35.861Z,17.43
2022-10-05T19:19:37.935Z,17.28
2022-10-05T19:22:55.872Z,16.65
2022-10-05T19:25:59.842Z,17.70
2022-10-05T19:29:05.403Z,17.85
2022-10-05T19:32:16.662Z,18.08
2022-10-05T19:35:45.011Z,16.83
2022-10-05T19:38:55.559Z,16.22
2022-10-05T19:42:04.437Z,16.91
2022-10-05T19:45:09.364Z,17.69
2022-10-05T19:48:21.174Z,17.21
2022-10-05T19:51:35.546Z,16.60
2022-10-05T19:54:37.362Z,17.06
2022-10-05T19:57:49.078Z,17.24
2022-10-05T20:00:56.991Z,16.40
2022-10-05T20:03:58.797Z,16.48
2022-10-05T20:07:02.468Z,17.08
2022-10-05T20:10:24.839Z,17.53
2022-10-05T20:13:27.775Z,16.55
2022-10-05T20:16:49.392Z,16.07
2022-10-05T20:20:09.684Z,16.50
2022-10-05T20:23:23.569Z,16.72
2022-10-05T20:26:57.558Z,16.90
2022-10-05T20:29:59.357Z,17.02
2022-10-05T20:33:01.660Z,16.73
2022-10-05T20:36:04.285Z,16.25
2022-10-05T20:39:06.130Z,16.85
2022-10-05T20:42:08.492Z,16.87
2022-10-05T20:45:11.058Z,15.97
2022-10-05T20:48:13.690Z,15.86
2022-10-05T20:51:16.946Z,15.73
2022-10-05T20:54:19.052Z,15.83
2022-10-05T20:57:24.340Z,15.42
2022-10-05T21:00:27.426Z,15.37
2022-10-05T21:03:30.801Z,15.10
2022-10-05T21:06:33.254Z,15.23
2022-10-05T21:09:37.943Z,15.50
2022-10-05T21:12:39.860Z,15.09
2022-10-05T21:15:41.815Z,14.94
2022-10-05T21:18:47.204Z,14.87
2022-10-05T21:21:49.229Z,14.94
2022-10-05T21:24:51.107Z,15.20
2022-10-05T21:27:54.161Z,15.34
2022-10-05T21:30:56.225Z,15.27
2022-10-05T21:33:58.055Z,14.95
2022-10-05T21:36:59.906Z,15.24
2022-10-05T21:40:01.772Z,15.12
2022-10-05T21:43:03.701Z,15.27
2022-10-05T21:46:05.885Z,15.70
2022-10-05T21:49:08.011Z,15.18
2022-10-05T21:52:09.918Z,15.56
2022-10-05T21:55:11.753Z,15.15
2022-10-05T21:58:13.590Z,15.55
2022-10-05T22:01:20.179Z,15.60
2022-10-05T22:04:24.133Z,15.53
2022-10-05T22:07:26.003Z,15.15
2022-10-05T22:10:28.969Z,14.87
2022-10-05T22:13:31.861Z,15.12
2022-10-05T22:16:34.965Z,14.63
2022-10-05T22:19:36.930Z,15.44
2022-10-05T22:22:38.908Z,14.58
2022-10-05T22:25:43.462Z,14.70
2022-10-05T22:28:46.870Z,14.70
2022-10-05T22:31:49.069Z,14.08
2022-10-05T22:34:51.137Z,14.04
2022-10-05T22:37:52.944Z,14.43
2022-10-05T22:40:54.768Z,14.55
2022-10-05T22:43:56.571Z,14.24
2022-10-05T22:46:58.379Z,14.89
2022-10-05T22:50:00.506Z,15.58
2022-10-05T22:53:02.389Z,15.50
2022-10-05T22:56:05.138Z,14.76
2022-10-05T22:59:07.081Z,14.70
2022-10-05T23:02:09.046Z,14.14
2022-10-05T23:05:13.358Z,14.27
2022-10-05T23:08:16.751Z,14.51
2022-10-05T23:11:26.030Z,15.44
2022-10-05T23:14:30.746Z,14.68
2022-10-05T23:17:34.763Z,15.39
2022-10-05T23:20:37.107Z,15.09
2022-10-05T23:23:39.536Z,15.18
2022-10-05T23:26:41.370Z,15.34
2022-10-05T23:29:43.302Z,15.36
2022-10-05T23:32:45.192Z,15.84
2022-10-05T23:35:47.016Z,15.47
2022-10-05T23:38:49.114Z,16.17
2022-10-05T23:41:50.922Z,16.19
2022-10-05T23:44:52.780Z,16.39
2022-10-05T23:47:54.615Z,16.43
2022-10-05T23:50:56.759Z,16.35
2022-10-05T23:53:58.534Z,16.21
2022-10-05T23:57:00.406Z,16.20
